Time;durP1;ratioP1;P1;durP2;ratioP2;P2;SDS_P1;SDS_P2;PMS_P1;PMS_P2;Temp;Humidity;BMP_temperature;BMP_pressure;BME280_temperature;BME280_humidity;BME280_pressure;Samples;Min_cycle;Max_cycle;Signal;HPM_P1;HPM_P2
2024/01/26 00:01:33;;;;;;;41.70;31.30;;;4.40;99.90;;;;;;5089255;28;20044;-75
2024/01/26 00:03:59;;;;;;;40.30;30.25;;;4.50;99.90;;;;;;5077438;28;20024;-75
2024/01/26 00:06:25;;;;;;;44.25;30.80;;;4.50;99.90;;;;;;5085140;28;20029;-75
2024/01/26 00:08:51;;;;;;;43.38;31.48;;;4.60;99.90;;;;;;5062373;28;20024;-75
2024/01/26 00:11:18;;;;;;;45.30;33.78;;;4.60;99.90;;;;;;5071086;28;20040;-75
2024/01/26 00:13:44;;;;;;;43.17;33.60;;;4.60;99.90;;;;;;5073217;28;20016;-75
2024/01/26 00:16:10;;;;;;;43.33;32.78;;;4.50;99.90;;;;;;5081018;28;20099;-75
2024/01/26 00:18:36;;;;;;;41.95;31.10;;;4.50;99.90;;;;;;5072838;28;20111;-75
2024/01/26 00:21:03;;;;;;;43.22;31.83;;;4.40;99.90;;;;;;5089564;28;20391;-75
2024/01/26 00:23:30;;;;;;;39.53;31.23;;;4.50;99.90;;;;;;5079401;28;20426;-74
2024/01/26 00:25:56;;;;;;;40.40;30.13;;;4.60;99.90;;;;;;5078727;28;20105;-75
2024/01/26 00:28:21;;;;;;;43.28;32.58;;;4.60;99.90;;;;;;5102166;28;20032;-76
2024/01/26 00:30:47;;;;;;;54.45;39.72;;;4.40;99.90;;;;;;5072692;28;20036;-75
2024/01/26 00:33:13;;;;;;;48.95;33.28;;;4.40;99.90;;;;;;5072605;28;20032;-75
2024/01/26 00:35:38;;;;;;;46.55;31.83;;;4.40;99.90;;;;;;5070339;28;20032;-75
2024/01/26 00:38:05;;;;;;;42.00;31.60;;;4.50;99.90;;;;;;5079945;28;20020;-75
2024/01/26 00:40:30;;;;;;;44.03;32.17;;;4.50;99.90;;;;;;5101916;28;20055;-75
2024/01/26 00:42:56;;;;;;;41.75;30.70;;;4.60;99.90;;;;;;5109181;28;20024;-75
2024/01/26 00:45:22;;;;;;;45.03;31.27;;;4.70;99.90;;;;;;5113192;28;20030;-75
2024/01/26 00:47:47;;;;;;;42.42;31.30;;;4.70;99.90;;;;;;5105456;28;20015;-76
2024/01/26 00:50:13;;;;;;;42.88;31.27;;;4.70;99.90;;;;;;5111994;28;20111;-75
2024/01/26 00:52:39;;;;;;;43.00;31.88;;;4.80;99.90;;;;;;5088055;28;20424;-75
2024/01/26 00:55:05;;;;;;;43.70;30.83;;;4.80;99.90;;;;;;5100587;28;20082;-75
2024/01/26 00:57:31;;;;;;;44.20;31.25;;;4.80;99.90;;;;;;5118785;27;20028;-76
2024/01/26 00:59:56;;;;;;;43.08;31.48;;;4.80;99.90;;;;;;5102922;28;20058;-75
2024/01/26 01:02:23;;;;;;;50.65;33.25;;;4.80;99.90;;;;;;5106220;28;20019;-75
2024/01/26 01:04:49;;;;;;;47.33;33.55;;;4.80;99.90;;;;;;5095213;28;20513;-75
2024/01/26 01:07:15;;;;;;;51.05;33.40;;;4.70;99.90;;;;;;5079115;28;20030;-75
2024/01/26 01:09:41;;;;;;;47.67;34.97;;;4.80;99.90;;;;;;5107175;28;20102;-75
2024/01/26 01:12:07;;;;;;;51.50;36.35;;;4.80;99.90;;;;;;5090045;28;20016;-75
2024/01/26 01:14:35;;;;;;;48.22;34.40;;;4.80;99.90;;;;;;5096089;28;20031;-75
2024/01/26 01:17:01;;;;;;;50.50;34.38;;;4.80;99.90;;;;;;5100338;28;20051;-76
2024/01/26 01:19:27;;;;;;;48.38;36.40;;;4.80;99.90;;;;;;5100149;28;20440;-75
2024/01/26 01:21:53;;;;;;;49.33;35.97;;;4.70;99.90;;;;;;5093462;28;20040;-75
2024/01/26 01:24:19;;;;;;;53.03;37.30;;;4.70;99.90;;;;;;5108441;28;20134;-76
2024/01/26 01:26:44;;;;;;;51.72;37.30;;;4.60;99.90;;;;;;5112535;28;20115;-75
2024/01/26 01:29:10;;;;;;;50.95;39.00;;;4.50;99.90;;;;;;5100326;28;20069;-75
2024/01/26 01:31:36;;;;;;;50.50;37.92;;;4.50;99.90;;;;;;5104278;28;20019;-75
2024/01/26 01:34:02;;;;;;;51.15;37.33;;;4.60;99.90;;;;;;5108909;28;20027;-75
2024/01/26 01:36:27;;;;;;;55.50;39.45;;;4.60;99.90;;;;;;5101895;28;20028;-75
2024/01/26 01:38:53;;;;;;;55.83;41.22;;;4.60;99.90;;;;;;5112425;28;20153;-75
2024/01/26 01:41:19;;;;;;;53.35;40.05;;;4.70;99.90;;;;;;5101931;28;20044;-75
2024/01/26 01:43:56;;;;;;;50.65;38.40;;;4.60;99.90;;;;;;5108341;28;20414;-75
2024/01/26 01:46:22;;;;;;;56.97;40.65;;;4.60;99.90;;;;;;5078259;28;20543;-75
2024/01/26 01:48:49;;;;;;;61.08;42.38;;;4.60;99.90;;;;;;5057874;28;20107;-75
2024/01/26 01:51:15;;;;;;;59.03;42.38;;;4.70;99.90;;;;;;5082426;28;20028;-75
2024/01/26 01:53:41;;;;;;;64.85;45.55;;;4.70;99.90;;;;;;5080859;28;20025;-75
2024/01/26 01:56:10;;;;;;;65.78;45.13;;;4.80;99.90;;;;;;5087153;28;20426;-75
2024/01/26 01:58:41;;;;;;;61.15;43.05;;;4.80;99.90;;;;;;5083568;28;20012;-75
2024/01/26 02:01:10;;;;;;;58.22;42.42;;;4.80;99.90;;;;;;5077711;28;20107;-75
2024/01/26 02:03:36;;;;;;;60.90;44.50;;;4.80;99.90;;;;;;5085830;28;20020;-78
2024/01/26 02:06:02;;;;;;;63.70;46.58;;;4.80;99.90;;;;;;5096174;28;20025;-77
2024/01/26 02:08:28;;;;;;;60.53;44.30;;;4.80;99.90;;;;;;5091446;28;20507;-77
2024/01/26 02:10:54;;;;;;;64.95;47.80;;;4.80;99.90;;;;;;5079676;28;20029;-77
2024/01/26 02:13:19;;;;;;;58.53;43.30;;;4.80;99.90;;;;;;5078803;28;20058;-74
2024/01/26 02:15:45;;;;;;;62.97;43.97;;;4.80;99.90;;;;;;5084266;28;20028;-75
2024/01/26 02:18:11;;;;;;;61.65;45.92;;;4.80;99.90;;;;;;5061326;28;20033;-75
2024/01/26 02:20:37;;;;;;;66.85;48.85;;;4.80;99.90;;;;;;5069295;28;20032;-75
2024/01/26 02:23:03;;;;;;;63.80;46.38;;;4.90;99.90;;;;;;5075312;28;20024;-75
2024/01/26 02:25:29;;;;;;;63.90;46.70;;;4.90;99.90;;;;;;5069786;28;20437;-75
2024/01/26 02:27:54;;;;;;;66.22;48.03;;;4.90;99.90;;;;;;5090669;28;20107;-74
2024/01/26 02:30:20;;;;;;;63.95;45.85;;;4.90;99.90;;;;;;5088631;28;20027;-78
2024/01/26 02:32:46;;;;;;;63.22;46.83;;;4.90;99.90;;;;;;5089962;28;20040;-77
2024/01/26 02:35:12;;;;;;;63.83;47.47;;;4.90;99.90;;;;;;5092963;28;20109;-77
2024/01/26 02:37:37;;;;;;;70.10;48.75;;;4.90;99.90;;;;;;5093368;28;20102;-78
2024/01/26 02:40:04;;;;;;;63.75;46.72;;;4.90;99.90;;;;;;5087315;28;20040;-78
2024/01/26 02:42:29;;;;;;;70.57;50.97;;;4.90;99.90;;;;;;5080062;28;20031;-77
2024/01/26 02:44:55;;;;;;;75.78;53.20;;;4.90;99.90;;;;;;5112515;28;20036;-77
2024/01/26 02:47:21;;;;;;;71.13;49.88;;;4.90;99.90;;;;;;5085010;28;20040;-77
2024/01/26 02:49:47;;;;;;;68.55;50.38;;;4.90;99.90;;;;;;5103219;28;20030;-75
2024/01/26 02:52:13;;;;;;;73.72;50.45;;;4.90;99.90;;;;;;5077004;28;20039;-77
2024/01/26 02:54:38;;;;;;;69.10;50.50;;;5.00;99.90;;;;;;5095131;28;20081;-78
2024/01/26 02:57:04;;;;;;;74.65;51.75;;;5.00;99.90;;;;;;5115706;27;20032;-77
2024/01/26 02:59:30;;;;;;;69.80;51.30;;;5.00;99.90;;;;;;5089593;28;20037;-77
2024/01/26 03:01:55;;;;;;;76.30;53.22;;;5.00;99.90;;;;;;5123004;27;20042;-77
2024/01/26 03:04:21;;;;;;;71.50;52.92;;;5.00;99.90;;;;;;5110963;28;20478;-77
2024/01/26 03:06:47;;;;;;;75.45;53.50;;;5.00;99.90;;;;;;5105332;28;20039;-78
2024/01/26 03:09:13;;;;;;;79.75;55.22;;;5.10;99.90;;;;;;5108995;28;20020;-75
2024/01/26 03:11:41;;;;;;;74.63;54.25;;;5.10;99.90;;;;;;5108717;28;20031;-75
2024/01/26 03:14:07;;;;;;;73.60;53.15;;;5.10;99.90;;;;;;5097656;28;20028;-75
2024/01/26 03:16:34;;;;;;;73.78;54.35;;;5.10;99.90;;;;;;5118089;27;20024;-75
2024/01/26 03:19:00;;;;;;;73.50;53.47;;;5.10;99.90;;;;;;5091957;28;20027;-75
2024/01/26 03:21:26;;;;;;;74.53;55.85;;;5.10;99.90;;;;;;5094725;28;20174;-75
2024/01/26 03:23:52;;;;;;;74.97;53.92;;;5.20;99.90;;;;;;5130392;27;20027;-75
2024/01/26 03:26:18;;;;;;;77.25;55.55;;;5.20;99.90;;;;;;5110910;28;20028;-75
2024/01/26 03:28:44;;;;;;;80.68;55.38;;;5.20;99.90;;;;;;5109655;28;20024;-75
2024/01/26 03:31:09;;;;;;;80.32;56.05;;;5.20;99.90;;;;;;5107553;28;20024;-75
2024/01/26 03:33:35;;;;;;;79.05;54.72;;;5.20;99.90;;;;;;5104936;28;20024;-75
2024/01/26 03:36:01;;;;;;;81.18;54.63;;;5.30;99.90;;;;;;5104077;28;20031;-77
2024/01/26 03:38:26;;;;;;;75.22;53.92;;;5.30;99.90;;;;;;5106623;28;20021;-77
2024/01/26 03:40:52;;;;;;;77.70;54.47;;;5.20;99.90;;;;;;5108002;28;20044;-75
2024/01/26 03:43:18;;;;;;;76.03;55.78;;;5.20;99.90;;;;;;5087977;28;20026;-75
2024/01/26 03:45:44;;;;;;;81.47;56.25;;;5.30;99.90;;;;;;5113451;28;20080;-75
2024/01/26 03:48:09;;;;;;;75.15;54.33;;;5.30;99.90;;;;;;5114343;28;20372;-74
2024/01/26 03:50:35;;;;;;;76.22;54.20;;;5.30;99.90;;;;;;5084202;28;20434;-75
2024/01/26 03:53:01;;;;;;;73.47;53.90;;;5.30;99.90;;;;;;5101875;28;20069;-75
2024/01/26 03:55:26;;;;;;;73.50;54.83;;;5.20;99.90;;;;;;5095039;28;20088;-75
2024/01/26 03:57:52;;;;;;;72.22;52.00;;;5.20;99.90;;;;;;5114220;28;20020;-75
2024/01/26 04:00:18;;;;;;;76.10;53.90;;;5.20;99.90;;;;;;5106183;28;20510;-74
2024/01/26 04:02:44;;;;;;;76.22;53.40;;;5.20;99.90;;;;;;5114147;28;20015;-74
2024/01/26 04:05:09;;;;;;;81.10;54.55;;;5.20;99.90;;;;;;5082320;28;20282;-75
2024/01/26 04:07:35;;;;;;;74.82;54.10;;;5.20;99.90;;;;;;5105666;28;20084;-75
2024/01/26 04:10:02;;;;;;;78.93;53.10;;;5.20;99.90;;;;;;5114010;28;20027;-74
2024/01/26 04:12:27;;;;;;;75.82;53.95;;;5.20;99.90;;;;;;5115216;27;20395;-74
2024/01/26 04:14:53;;;;;;;80.68;52.90;;;5.20;99.90;;;;;;5101203;28;20032;-75
2024/01/26 04:17:19;;;;;;;75.22;52.80;;;5.20;99.90;;;;;;5078203;28;20027;-75
2024/01/26 04:19:45;;;;;;;82.43;53.95;;;5.20;99.90;;;;;;5121322;27;20425;-75
2024/01/26 04:22:10;;;;;;;76.30;52.85;;;5.20;99.90;;;;;;5122165;27;20024;-75
2024/01/26 04:24:36;;;;;;;73.90;52.90;;;5.20;99.90;;;;;;5100976;28;20130;-75
2024/01/26 04:27:02;;;;;;;73.80;52.88;;;5.20;99.90;;;;;;5113502;28;20027;-75
2024/01/26 04:29:28;;;;;;;73.70;51.58;;;5.20;99.90;;;;;;5097072;28;20043;-75
2024/01/26 04:31:53;;;;;;;73.60;55.17;;;5.20;99.90;;;;;;5113431;28;20053;-75
2024/01/26 04:34:19;;;;;;;77.47;55.22;;;5.20;99.90;;;;;;5112369;28;20028;-75
2024/01/26 04:36:48;;;;;;;76.88;52.33;;;5.20;99.90;;;;;;5109511;28;20078;-75
2024/01/26 04:39:15;;;;;;;69.93;51.28;;;5.20;99.90;;;;;;5105139;28;20024;-75
2024/01/26 04:41:41;;;;;;;70.88;50.53;;;5.20;99.90;;;;;;5101052;28;20020;-75
2024/01/26 04:44:07;;;;;;;75.47;53.47;;;5.30;99.90;;;;;;5110530;28;20032;-75
2024/01/26 04:46:32;;;;;;;74.00;51.35;;;5.30;99.90;;;;;;5099498;28;20054;-75
2024/01/26 04:48:58;;;;;;;71.55;50.97;;;5.30;99.90;;;;;;5100874;28;20439;-76
2024/01/26 04:51:24;;;;;;;71.38;51.75;;;5.30;99.90;;;;;;5097402;28;20028;-75
2024/01/26 04:53:49;;;;;;;69.60;52.35;;;5.30;99.90;;;;;;5082092;28;20023;-75
2024/01/26 04:56:15;;;;;;;78.95;51.00;;;5.30;99.90;;;;;;5100725;28;20095;-75
2024/01/26 04:58:41;;;;;;;83.57;54.15;;;5.30;99.90;;;;;;5112925;28;20371;-75
2024/01/26 05:01:07;;;;;;;74.72;51.30;;;5.30;99.90;;;;;;5104222;28;20485;-75
2024/01/26 05:03:33;;;;;;;74.22;51.38;;;5.30;99.90;;;;;;5111346;28;20023;-75
2024/01/26 05:05:59;;;;;;;72.75;49.80;;;5.30;99.90;;;;;;5103465;28;20031;-75
2024/01/26 05:08:24;;;;;;;71.78;49.13;;;5.30;99.90;;;;;;5092437;28;20024;-75
2024/01/26 05:10:51;;;;;;;74.75;49.72;;;5.30;99.90;;;;;;5112453;28;20082;-75
2024/01/26 05:13:17;;;;;;;66.15;48.47;;;5.30;99.90;;;;;;5094631;28;20032;-75
2024/01/26 05:15:42;;;;;;;67.53;48.22;;;5.30;99.90;;;;;;5094581;28;20035;-75
2024/01/26 05:18:08;;;;;;;72.28;51.25;;;5.40;99.90;;;;;;5112937;28;20032;-76
2024/01/26 05:20:34;;;;;;;72.22;49.08;;;5.30;99.90;;;;;;5101389;28;20071;-75
2024/01/26 05:23:00;;;;;;;71.50;47.38;;;5.30;99.90;;;;;;5100305;28;20476;-75
2024/01/26 05:25:25;;;;;;;64.88;47.30;;;5.30;99.90;;;;;;5096113;28;20059;-75
2024/01/26 05:27:51;;;;;;;63.08;47.33;;;5.30;99.90;;;;;;5112653;28;20062;-75
2024/01/26 05:30:17;;;;;;;70.70;49.08;;;5.30;99.90;;;;;;5094224;28;20053;-75
2024/01/26 05:32:43;;;;;;;66.70;47.88;;;5.30;99.90;;;;;;5109799;28;20033;-75
2024/01/26 05:35:09;;;;;;;67.78;48.25;;;5.30;99.90;;;;;;5128469;27;20119;-76
2024/01/26 05:37:36;;;;;;;65.78;46.38;;;5.30;99.90;;;;;;5111270;28;20107;-75
2024/01/26 05:40:08;;;;;;;70.95;48.33;;;5.30;99.90;;;;;;5104563;28;20434;-76
2024/01/26 05:42:34;;;;;;;66.65;47.35;;;5.30;99.90;;;;;;5094306;28;20019;-76
2024/01/26 05:45:02;;;;;;;75.90;47.28;;;5.20;99.90;;;;;;5112729;28;20023;-76
2024/01/26 05:47:27;;;;;;;63.08;44.90;;;5.30;99.90;;;;;;5112493;28;20028;-76
2024/01/26 05:49:53;;;;;;;62.30;44.67;;;5.20;99.90;;;;;;5086722;28;20560;-76
2024/01/26 05:52:19;;;;;;;64.00;44.67;;;5.20;99.90;;;;;;5108085;28;20028;-76
2024/01/26 05:54:44;;;;;;;63.65;45.10;;;5.20;99.90;;;;;;5096574;28;20479;-76
2024/01/26 05:57:10;;;;;;;63.95;44.47;;;5.20;99.90;;;;;;5127964;28;20035;-76
2024/01/26 05:59:37;;;;;;;64.50;45.35;;;5.20;99.90;;;;;;5110957;28;20027;-76
2024/01/26 06:02:04;;;;;;;60.15;43.95;;;5.20;99.90;;;;;;5092008;28;20021;-75
2024/01/26 06:04:31;;;;;;;58.53;43.42;;;5.20;99.90;;;;;;5090734;28;20032;-76
2024/01/26 06:06:57;;;;;;;63.20;43.72;;;5.20;99.90;;;;;;5073844;28;20032;-76
2024/01/26 06:09:23;;;;;;;60.92;43.40;;;5.30;99.90;;;;;;5102474;28;20028;-76
2024/01/26 06:11:49;;;;;;;61.65;43.00;;;5.20;99.90;;;;;;5111425;28;20490;-76
2024/01/26 06:14:15;;;;;;;59.63;41.08;;;5.30;99.90;;;;;;5111805;28;20019;-76
2024/01/26 06:16:41;;;;;;;61.33;41.53;;;5.20;99.90;;;;;;5112343;28;20386;-75
2024/01/26 06:19:06;;;;;;;52.28;38.22;;;5.30;99.90;;;;;;5112152;28;20099;-75
2024/01/26 06:21:32;;;;;;;53.08;38.92;;;5.30;99.90;;;;;;5111775;28;20448;-76
2024/01/26 06:23:59;;;;;;;51.55;38.35;;;5.30;99.90;;;;;;5110298;28;20011;-76
2024/01/26 06:26:25;;;;;;;51.35;37.03;;;5.30;99.90;;;;;;5111915;28;20065;-76
2024/01/26 06:28:51;;;;;;;60.67;40.00;;;5.30;99.90;;;;;;5111921;28;20266;-76
2024/01/26 06:31:17;;;;;;;53.35;37.25;;;5.40;99.90;;;;;;5090694;28;20020;-76
2024/01/26 06:33:42;;;;;;;56.40;36.03;;;5.40;99.90;;;;;;5109863;28;20027;-75
2024/01/26 06:36:11;;;;;;;52.80;34.83;;;5.40;99.90;;;;;;5073369;28;20475;-76
2024/01/26 06:38:40;;;;;;;53.95;36.70;;;5.40;99.90;;;;;;5092679;28;20022;-76
2024/01/26 06:41:07;;;;;;;47.42;33.30;;;5.40;99.90;;;;;;5103881;28;20065;-76
2024/01/26 06:43:33;;;;;;;47.67;34.90;;;5.40;99.90;;;;;;5091649;28;20366;-76
2024/01/26 06:45:58;;;;;;;52.17;36.42;;;5.40;99.90;;;;;;5099245;28;20030;-76
2024/01/26 06:48:26;;;;;;;49.72;36.20;;;5.30;99.90;;;;;;5095427;28;20032;-76
2024/01/26 06:50:52;;;;;;;44.97;31.63;;;5.30;99.90;;;;;;5079605;28;20032;-76
2024/01/26 06:53:19;;;;;;;49.88;33.13;;;5.40;99.90;;;;;;5103157;28;20483;-76
2024/01/26 06:55:45;;;;;;;45.70;33.53;;;5.40;99.90;;;;;;5119047;27;20062;-76
2024/01/26 06:58:11;;;;;;;43.75;31.75;;;5.40;99.90;;;;;;5102816;28;20054;-75
2024/01/26 07:00:36;;;;;;;49.03;32.70;;;5.40;99.90;;;;;;5099364;28;20019;-76
2024/01/26 07:03:02;;;;;;;48.38;32.40;;;5.40;99.90;;;;;;5111456;28;20019;-76
2024/01/26 07:05:28;;;;;;;49.80;32.75;;;5.50;99.90;;;;;;5127929;27;20028;-76
2024/01/26 07:07:56;;;;;;;44.53;31.20;;;5.50;99.90;;;;;;5110621;28;20073;-75
2024/01/26 07:10:22;;;;;;;47.33;31.55;;;5.50;99.90;;;;;;5114638;28;20022;-76
2024/01/26 07:12:48;;;;;;;43.95;31.10;;;5.50;99.90;;;;;;5096311;28;20479;-76
2024/01/26 07:15:14;;;;;;;43.40;30.98;;;5.50;99.90;;;;;;5114807;28;20076;-76
2024/01/26 07:17:40;;;;;;;63.30;41.92;;;5.50;99.90;;;;;;5105574;28;20032;-75
2024/01/26 07:20:06;;;;;;;71.20;47.15;;;5.50;99.90;;;;;;5076097;28;20016;-76
2024/01/26 07:22:32;;;;;;;69.30;46.13;;;5.40;99.90;;;;;;5112265;28;20490;-76
2024/01/26 07:24:58;;;;;;;57.83;39.70;;;5.40;99.90;;;;;;5130701;27;20076;-76
2024/01/26 07:27:23;;;;;;;40.13;27.98;;;5.50;99.90;;;;;;5114870;28;20036;-76
2024/01/26 07:29:49;;;;;;;63.15;42.47;;;5.50;99.90;;;;;;5114830;28;20035;-75
2024/01/26 07:32:15;;;;;;;55.70;39.00;;;5.50;99.90;;;;;;5103488;28;20028;-76
2024/01/26 07:34:40;;;;;;;59.50;42.42;;;5.60;99.90;;;;;;5094408;28;20086;-76
2024/01/26 07:37:07;;;;;;;68.72;48.20;;;5.50;99.90;;;;;;5095686;28;20032;-76
2024/01/26 07:39:33;;;;;;;78.80;51.80;;;5.30;99.90;;;;;;5128914;27;20085;-76
2024/01/26 07:41:59;;;;;;;76.15;51.97;;;5.30;99.90;;;;;;5114673;28;20031;-76
2024/01/26 07:44:25;;;;;;;73.07;50.05;;;5.30;99.90;;;;;;5110592;28;20100;-76
2024/01/26 07:46:50;;;;;;;79.35;54.80;;;5.30;99.90;;;;;;5114527;28;20115;-76
2024/01/26 07:49:16;;;;;;;78.38;54.38;;;5.20;99.90;;;;;;5126253;27;20024;-75
2024/01/26 07:51:42;;;;;;;83.93;54.25;;;5.30;99.90;;;;;;5114335;28;20111;-76
2024/01/26 07:54:08;;;;;;;80.80;55.50;;;5.30;99.90;;;;;;5114328;28;20030;-76
2024/01/26 07:56:33;;;;;;;74.47;51.20;;;5.30;99.90;;;;;;5112247;28;20019;-76
2024/01/26 07:58:59;;;;;;;68.60;43.30;;;5.40;99.90;;;;;;5104470;28;20027;-76
2024/01/26 08:01:25;;;;;;;59.33;35.88;;;5.40;99.90;;;;;;5103434;28;20028;-76
2024/01/26 08:03:50;;;;;;;45.35;32.58;;;5.40;99.90;;;;;;5108837;28;20024;-76
2024/01/26 08:06:16;;;;;;;51.25;35.15;;;5.40;99.90;;;;;;5093772;28;20111;-75
2024/01/26 08:08:42;;;;;;;69.82;44.53;;;5.50;99.90;;;;;;5100602;28;20079;-78
2024/01/26 08:11:09;;;;;;;62.75;43.42;;;5.50;99.90;;;;;;5105256;28;20395;-78
2024/01/26 08:13:34;;;;;;;63.08;42.25;;;5.50;99.90;;;;;;5101197;28;20028;-78
2024/01/26 08:16:00;;;;;;;59.10;40.65;;;5.40;99.90;;;;;;5105030;28;20031;-78
2024/01/26 08:18:26;;;;;;;57.67;37.10;;;5.50;99.90;;;;;;5101061;28;20062;-78
2024/01/26 08:20:52;;;;;;;58.97;37.80;;;5.50;99.90;;;;;;5103479;28;20034;-77
2024/01/26 08:23:18;;;;;;;59.83;41.72;;;5.50;99.90;;;;;;5102057;28;20467;-78
2024/01/26 08:25:44;;;;;;;69.22;46.90;;;5.50;99.90;;;;;;5086400;28;20024;-77
2024/01/26 08:28:10;;;;;;;66.65;45.30;;;5.50;99.90;;;;;;5102623;28;20436;-78
2024/01/26 08:30:37;;;;;;;72.00;47.50;;;5.60;99.90;;;;;;5118835;27;20051;-77
2024/01/26 08:33:03;;;;;;;82.32;59.35;;;5.60;99.90;;;;;;5101703;28;20028;-77
2024/01/26 08:35:29;;;;;;;77.68;56.15;;;5.60;99.90;;;;;;5103123;28;20042;-77
2024/01/26 08:37:54;;;;;;;69.95;48.05;;;5.60;99.90;;;;;;5104471;28;20020;-78
2024/01/26 08:40:20;;;;;;;69.75;50.15;;;5.70;99.90;;;;;;5104388;28;20081;-78
2024/01/26 08:42:47;;;;;;;60.90;40.92;;;5.70;99.90;;;;;;5100499;28;20024;-78
2024/01/26 08:45:12;;;;;;;61.83;40.25;;;5.70;99.90;;;;;;5119565;27;20076;-77
2024/01/26 08:47:38;;;;;;;63.45;42.65;;;5.80;99.90;;;;;;5101029;28;20024;-77
2024/01/26 08:50:05;;;;;;;58.92;41.45;;;5.90;99.90;;;;;;5086164;28;20495;-78
2024/01/26 08:52:31;;;;;;;62.45;43.10;;;5.90;99.90;;;;;;5102667;28;20023;-77
2024/01/26 08:54:58;;;;;;;61.42;43.10;;;6.00;99.90;;;;;;5101824;28;20505;-78
2024/01/26 08:57:23;;;;;;;62.08;41.78;;;6.00;99.90;;;;;;5108170;27;20026;-77
2024/01/26 08:59:49;;;;;;;66.72;46.53;;;6.00;99.90;;;;;;5084383;28;20028;-77
2024/01/26 09:02:15;;;;;;;78.43;54.38;;;6.10;99.90;;;;;;5091025;28;20032;-78
2024/01/26 09:04:41;;;;;;;81.32;55.97;;;6.10;99.90;;;;;;5103066;28;20111;-77
2024/01/26 09:07:06;;;;;;;80.88;56.60;;;6.10;99.90;;;;;;5100262;28;20020;-78
2024/01/26 09:09:32;;;;;;;79.30;55.72;;;6.20;99.90;;;;;;5103808;28;20479;-77
2024/01/26 09:11:58;;;;;;;77.13;56.15;;;6.20;99.90;;;;;;5085592;28;20372;-77
2024/01/26 09:14:24;;;;;;;79.55;56.80;;;6.30;99.90;;;;;;5102842;28;20030;-78
2024/01/26 09:16:51;;;;;;;79.75;56.50;;;6.30;99.90;;;;;;5081862;28;20023;-77
2024/01/26 09:19:17;;;;;;;81.45;55.65;;;6.30;99.90;;;;;;5102788;28;20026;-78
2024/01/26 09:21:43;;;;;;;86.55;61.08;;;6.30;99.90;;;;;;5100896;28;20063;-78
2024/01/26 09:24:09;;;;;;;98.78;67.97;;;6.40;99.90;;;;;;5100962;28;20024;-77
2024/01/26 09:26:35;;;;;;;101.75;73.60;;;6.50;99.90;;;;;;5104051;28;20024;-78
2024/01/26 09:29:01;;;;;;;112.82;80.38;;;6.50;99.90;;;;;;5096742;28;20028;-78
2024/01/26 09:31:26;;;;;;;121.25;84.18;;;6.70;99.90;;;;;;5098935;28;20024;-76
2024/01/26 09:33:52;;;;;;;113.72;81.68;;;6.80;99.90;;;;;;5095693;28;20024;-76
2024/01/26 09:36:18;;;;;;;114.80;84.70;;;6.80;99.90;;;;;;5112019;27;20507;-76
2024/01/26 09:38:45;;;;;;;112.97;82.45;;;6.90;99.90;;;;;;5097266;28;20032;-77
2024/01/26 09:41:11;;;;;;;117.85;84.82;;;6.90;99.90;;;;;;5072112;28;20040;-76
2024/01/26 09:43:37;;;;;;;125.80;86.55;;;6.90;99.90;;;;;;5077087;28;20035;-76
2024/01/26 09:46:04;;;;;;;119.15;85.70;;;7.00;99.90;;;;;;5071921;28;20088;-76
2024/01/26 09:48:33;;;;;;;121.43;87.18;;;7.00;99.90;;;;;;5090081;28;20021;-76
2024/01/26 09:51:00;;;;;;;118.93;85.28;;;7.10;99.90;;;;;;5079500;28;20016;-76
2024/01/26 09:53:26;;;;;;;128.55;89.80;;;7.10;99.90;;;;;;5099344;28;20076;-76
2024/01/26 09:55:52;;;;;;;121.53;86.93;;;7.10;99.90;;;;;;5087997;28;20028;-75
2024/01/26 09:58:18;;;;;;;121.10;88.22;;;7.10;99.90;;;;;;5076450;28;20021;-76
2024/01/26 10:00:45;;;;;;;116.38;84.20;;;7.10;99.90;;;;;;5061384;28;20105;-76
2024/01/26 10:03:12;;;;;;;125.28;85.28;;;7.20;99.90;;;;;;5094491;28;20471;-76
2024/01/26 10:05:38;;;;;;;115.22;87.20;;;7.20;99.90;;;;;;5078973;28;20145;-76
2024/01/26 10:08:08;;;;;;;123.63;89.22;;;7.20;99.90;;;;;;5082453;28;20024;-76
2024/01/26 10:10:34;;;;;;;122.57;89.90;;;7.40;99.90;;;;;;5082974;28;20055;-76
2024/01/26 10:12:59;;;;;;;130.73;92.88;;;7.50;99.90;;;;;;5080603;28;20060;-76
2024/01/26 10:15:25;;;;;;;131.82;89.88;;;7.60;99.90;;;;;;5080904;28;20097;-76
2024/01/26 10:17:54;;;;;;;120.00;88.00;;;7.70;99.90;;;;;;5081380;28;20037;-76
2024/01/26 10:20:20;;;;;;;128.32;89.13;;;7.80;99.90;;;;;;5078739;28;20028;-76
2024/01/26 10:22:46;;;;;;;119.93;84.07;;;7.90;99.90;;;;;;5064082;28;20024;-76
2024/01/26 10:25:13;;;;;;;116.35;85.53;;;7.90;99.90;;;;;;5094642;28;20032;-76
2024/01/26 10:27:40;;;;;;;119.47;84.10;;;8.00;99.90;;;;;;5086495;28;20116;-76
2024/01/26 10:30:07;;;;;;;112.93;80.15;;;8.00;99.90;;;;;;5101700;28;20059;-76
2024/01/26 10:32:33;;;;;;;119.68;82.30;;;8.00;99.90;;;;;;5099174;28;20029;-76
2024/01/26 10:35:01;;;;;;;111.18;81.05;;;8.00;99.90;;;;;;5085170;28;20055;-76
2024/01/26 10:37:32;;;;;;;110.20;79.10;;;8.00;99.90;;;;;;5084249;28;20099;-76
2024/01/26 10:39:59;;;;;;;108.85;78.45;;;8.00;99.90;;;;;;5102024;28;20036;-76
2024/01/26 10:42:29;;;;;;;120.97;83.15;;;8.00;99.90;;;;;;5064928;28;20016;-76
2024/01/26 10:44:56;;;;;;;114.40;80.82;;;8.10;99.90;;;;;;5082621;28;20388;-76
2024/01/26 10:47:22;;;;;;;114.22;83.70;;;8.10;99.90;;;;;;5085382;28;20429;-76
2024/01/26 10:49:49;;;;;;;112.20;81.18;;;8.20;99.90;;;;;;5083390;28;20099;-76
2024/01/26 10:52:19;;;;;;;110.30;79.15;;;8.30;99.90;;;;;;5088664;28;20080;-76
2024/01/26 10:54:50;;;;;;;127.22;83.90;;;8.30;99.90;;;;;;5100285;28;20484;-76
2024/01/26 10:57:17;;;;;;;113.00;79.95;;;8.40;99.90;;;;;;5083339;28;20028;-75
2024/01/26 10:59:44;;;;;;;116.18;81.65;;;8.40;99.90;;;;;;5085924;28;20020;-76
2024/01/26 11:02:15;;;;;;;118.88;82.80;;;8.50;99.90;;;;;;5082245;28;20028;-76
2024/01/26 11:04:42;;;;;;;111.20;80.10;;;8.50;99.90;;;;;;5089995;28;20031;-76
2024/01/26 11:07:09;;;;;;;110.20;78.80;;;8.50;99.90;;;;;;5083703;28;20027;-76
2024/01/26 11:09:38;;;;;;;106.70;75.18;;;8.60;99.90;;;;;;5085705;28;20255;-76
2024/01/26 11:12:08;;;;;;;107.28;76.63;;;8.60;99.90;;;;;;5100709;28;20541;-76
2024/01/26 11:14:34;;;;;;;112.35;79.28;;;8.70;99.90;;;;;;5085860;28;20211;-76
2024/01/26 11:17:10;;;;;;;99.25;65.90;;;8.70;99.90;;;;;;5082001;28;20021;-76
2024/01/26 11:19:36;;;;;;;97.80;67.65;;;8.70;99.90;;;;;;5083771;28;20484;-76
2024/01/26 11:22:09;;;;;;;96.63;65.70;;;8.70;99.90;;;;;;5083982;28;20059;-75
2024/01/26 11:24:35;;;;;;;;;;;8.80;97.80;;;;;;5082580;28;20078;-76
2024/01/26 11:27:03;;;;;;;101.30;68.55;;;8.90;99.30;;;;;;5083702;28;20368;-76
2024/01/26 11:29:47;;;;;;;100.80;70.28;;;9.00;99.90;;;;;;5082135;28;20029;-76
2024/01/26 11:32:16;;;;;;;96.60;64.93;;;9.10;99.90;;;;;;5081955;28;20024;-76
2024/01/26 11:34:42;;;;;;;105.82;69.25;;;9.20;99.90;;;;;;5081456;28;20081;-76
2024/01/26 11:37:15;;;;;;;103.82;70.30;;;9.20;99.90;;;;;;5084010;28;20028;-76
2024/01/26 11:39:41;;;;;;;115.40;72.30;;;9.30;99.90;;;;;;5086481;28;20040;-76
2024/01/26 11:42:12;;;;;;;102.03;68.30;;;9.30;99.90;;;;;;5103765;28;20024;-76
2024/01/26 11:44:41;;;;;;;98.35;63.85;;;9.30;94.40;;;;;;5119037;27;20047;-76
2024/01/26 11:47:11;;;;;;;87.05;63.03;;;9.30;98.70;;;;;;5086859;28;20034;-76
2024/01/26 11:49:38;;;;;;;97.60;65.60;;;9.30;99.90;;;;;;5102073;28;20028;-76
2024/01/26 11:52:05;;;;;;;86.75;60.53;;;9.30;98.00;;;;;;5104280;28;20099;-76
2024/01/26 11:54:31;;;;;;;80.65;56.85;;;9.30;96.90;;;;;;5098937;28;20028;-76
2024/01/26 11:56:58;;;;;;;80.10;58.35;;;9.40;94.70;;;;;;5109054;27;20077;-76
2024/01/26 11:59:23;;;;;;;77.60;52.92;;;9.40;97.40;;;;;;5105503;28;20023;-76
2024/01/26 12:01:49;;;;;;;83.38;55.45;;;9.50;93.80;;;;;;5102521;28;20392;-76
2024/01/26 12:04:16;;;;;;;72.57;51.80;;;9.50;78.50;;;;;;5100227;28;20016;-76
2024/01/26 12:06:42;;;;;;;72.85;52.13;;;9.40;74.60;;;;;;5101375;28;20119;-76
2024/01/26 12:09:09;;;;;;;79.55;52.40;;;9.50;76.50;;;;;;5122368;27;20111;-76
2024/01/26 12:11:36;;;;;;;74.13;50.50;;;9.50;69.60;;;;;;5117022;27;20044;-75
2024/01/26 12:14:02;;;;;;;66.90;49.53;;;9.60;81.90;;;;;;5105220;28;20028;-76
2024/01/26 12:16:30;;;;;;;67.88;49.45;;;9.60;74.40;;;;;;5103900;28;20552;-76
2024/01/26 12:18:56;;;;;;;76.15;51.08;;;9.60;74.20;;;;;;5102554;28;20024;-76
2024/01/26 12:21:21;;;;;;;72.05;46.78;;;9.60;68.40;;;;;;5102455;28;20027;-76
2024/01/26 12:23:50;;;;;;;70.95;46.42;;;9.60;48.80;;;;;;5099025;28;20563;-76
2024/01/26 12:26:16;;;;;;;69.00;48.38;;;9.70;43.20;;;;;;5104003;27;20173;-76
2024/01/26 12:28:42;;;;;;;65.47;45.97;;;9.70;58.70;;;;;;5085682;28;20502;-76
2024/01/26 12:31:08;;;;;;;63.78;44.70;;;9.70;77.90;;;;;;5101142;28;20491;-75